»·PEaware :: SKY65 S59-KSZT

SKY65 :: S59-KSZT

FLIGHT INFORMATION

Flight Status: Arrived
Operator:
Skymark Airlines
More flights by this operator :: More flights under this callsign
Pilot: Chuck O. (4337)
Aircraft: BEECH AIRCRAFT BONANZA
(BE35)
More flights by this aircraft type
Origin: S59 Libby
United States
Destination: KSZT Sandpoint
United States
More flights between these airports :: More routes between these airports
Route: EYESE1 EYESE CLASS
File this flight plan on PilotEdge
Remarks:
Altitude:
(Current/Filed)
12,000ft
Speed:
(Current/Filed)
155kts
Departed: 06-Dec-18 09:02 AM
Arrived: 06-Dec-18 09:45 AM
Distance/Time
Traveled:
43nm/0:43
Distance/Time
To Go:
Arrived

Flight Plot

Page will automatically refresh every two minutes.

Flight plan parsing failed; only flown route is shown


Map Options




Map Legend


Flown Route
Filed Route
Departure Airport
Arrival Airport
Navaid (VOR, NDB)
Fix

Horizontal Profiles

Position Reports

Time Latitude Longitude Heading Altitude Ground
Speed
06-Dec-18 08:55 48.290429 -115.491648 324 2604ft 0kts
06-Dec-18 08:56 48.290432 -115.491651 324 2604ft 0kts
06-Dec-18 08:57 48.290435 -115.491654 324 2604ft 0kts
06-Dec-18 08:58 48.290438 -115.491658 324 2604ft 0kts
06-Dec-18 08:59 48.290442 -115.491661 324 2604ft 0kts
06-Dec-18 09:00 48.290460 -115.492560 254 2604ft 11kts
06-Dec-18 09:01 48.270455 -115.484643 170 3273ft 97kts
06-Dec-18 09:02 48.237827 -115.473037 164 4036ft 130kts
06-Dec-18 09:03 48.203050 -115.458758 165 4992ft 130kts
06-Dec-18 09:04 48.168995 -115.445251 165 5997ft 124kts
06-Dec-18 09:05 48.135764 -115.432137 166 6916ft 123kts
06-Dec-18 09:06 48.102609 -115.419070 166 7790ft 122kts
06-Dec-18 09:07 48.069595 -115.406076 166 8616ft 122kts
06-Dec-18 09:08 48.036573 -115.393098 167 9388ft 122kts
06-Dec-18 09:09 48.002479 -115.379071 154 10035ft 130kts
06-Dec-18 09:11 47.979969 -115.336742 129 10683ft 133kts
06-Dec-18 09:12 47.961070 -115.354681 298 11212ft 115kts
06-Dec-18 09:13 47.991163 -115.374288 335 11621ft 125kts
06-Dec-18 09:14 47.993384 -115.421617 261 11943ft 136kts
06-Dec-18 09:15 47.982986 -115.479553 259 11947ft 148kts
06-Dec-18 09:16 47.972072 -115.538832 259 11999ft 147kts
06-Dec-18 09:17 47.961143 -115.598007 259 12014ft 148kts
06-Dec-18 09:18 47.950127 -115.657453 259 12015ft 148kts
06-Dec-18 09:19 47.939104 -115.716743 259 12023ft 148kts
06-Dec-18 09:20 47.928006 -115.776248 259 12027ft 148kts
06-Dec-18 09:21 47.916906 -115.835571 259 12022ft 148kts
06-Dec-18 09:22 47.905750 -115.895003 259 12021ft 148kts
06-Dec-18 09:23 47.894583 -115.954313 259 12029ft 148kts
06-Dec-18 09:24 47.883414 -116.013499 259 12031ft 148kts
06-Dec-18 09:25 47.872258 -116.072387 259 12047ft 148kts
06-Dec-18 09:26 47.861040 -116.131403 258 12063ft 148kts
06-Dec-18 09:27 47.870006 -116.190850 292 11402ft 166kts
06-Dec-18 09:28 47.887524 -116.254706 292 10695ft 168kts
06-Dec-18 09:29 47.905246 -116.319824 292 9945ft 170kts
06-Dec-18 09:30 47.922895 -116.384533 291 9376ft 168kts
06-Dec-18 09:31 47.940571 -116.449485 291 8827ft 169kts
06-Dec-18 09:31 47.956103 -116.502787 302 8420ft 168kts
06-Dec-18 09:33 47.986119 -116.570507 302 7854ft 165kts
06-Dec-18 09:33 48.007048 -116.618132 302 7442ft 163kts
06-Dec-18 09:34 48.031932 -116.674893 302 6963ft 161kts
06-Dec-18 09:36 48.058839 -116.736362 302 6928ft 144kts
06-Dec-18 09:36 48.083878 -116.760378 7 6831ft 138kts
06-Dec-18 09:37 48.117408 -116.731784 31 6588ft 140kts
06-Dec-18 09:38 48.150560 -116.700727 32 6336ft 140kts
06-Dec-18 09:39 48.184725 -116.668585 32 5780ft 151kts
06-Dec-18 09:40 48.216659 -116.638463 30 4684ft 130kts
06-Dec-18 09:41 48.245373 -116.611058 32 4312ft 123kts
06-Dec-18 09:42 48.270565 -116.587644 31 2983ft 99kts
06-Dec-18 09:43 48.291331 -116.568007 32 2226ft 80kts
06-Dec-18 09:44 48.295992 -116.562536 172 2134ft 4kts
06-Dec-18 09:45 48.295729 -116.562301 118 2134ft 0kts
06-Dec-18 09:46 48.295727 -116.562296 118 2134ft 0kts
06-Dec-18 09:47 48.295725 -116.562292 118 2134ft 0kts
06-Dec-18 09:48 48.295724 -116.562288 118 2134ft 0kts
06-Dec-18 09:50 48.295722 -116.562281 0 2134ft 0kts
06-Dec-18 09:51 48.295719 -116.562274 118 2134ft 0kts
06-Dec-18 09:52 48.295717 -116.562270 118 2134ft 0kts
06-Dec-18 09:53 48.295716 -116.562266 118 2134ft 0kts

Navigation Log

Ident Type
Flight plan parsing failed, navigation log unavailable